sensor_id;sensor_type;location;lat;lon;timestamp;pressure;altitude;pressure_sealevel;temperature;humidity
53659;BME280;41524;35.624;139.698;2023-08-31T00:00:12;101566.00;;;29.05;51.38
53659;BME280;41524;35.624;139.698;2023-08-31T00:05:10;101566.00;;;29.33;51.21
53659;BME280;41524;35.624;139.698;2023-08-31T00:10:20;101562.00;;;29.24;51.91
53659;BME280;41524;35.624;139.698;2023-08-31T00:15:11;101558.00;;;29.32;51.74
53659;BME280;41524;35.624;139.698;2023-08-31T00:20:22;101551.00;;;29.46;50.95
53659;BME280;41524;35.624;139.698;2023-08-31T00:25:10;101543.00;;;29.35;50.91
53659;BME280;41524;35.624;139.698;2023-08-31T00:30:13;101547.00;;;27.92;53.93
53659;BME280;41524;35.624;139.698;2023-08-31T00:35:19;101535.00;;;29.12;51.81
53659;BME280;41524;35.624;139.698;2023-08-31T00:40:11;101527.00;;;30.47;47.68
53659;BME280;41524;35.624;139.698;2023-08-31T00:45:11;101524.00;;;30.80;47.80
53659;BME280;41524;35.624;139.698;2023-08-31T00:50:11;101532.00;;;29.23;50.06
53659;BME280;41524;35.624;139.698;2023-08-31T00:55:11;101522.00;;;30.82;46.88
53659;BME280;41524;35.624;139.698;2023-08-31T01:00:11;101521.00;;;29.53;48.88
53659;BME280;41524;35.624;139.698;2023-08-31T01:05:20;101517.00;;;30.08;47.31
53659;BME280;41524;35.624;139.698;2023-08-31T01:10:17;101518.00;;;30.13;48.11
53659;BME280;41524;35.624;139.698;2023-08-31T01:16:26;101513.00;;;31.13;46.87
53659;BME280;41524;35.624;139.698;2023-08-31T01:20:11;101516.00;;;31.68;45.17
53659;BME280;41524;35.624;139.698;2023-08-31T01:25:11;101518.00;;;29.79;47.84
53659;BME280;41524;35.624;139.698;2023-08-31T01:30:11;101516.00;;;30.10;47.13
53659;BME280;41524;35.624;139.698;2023-08-31T01:35:10;101507.00;;;29.95;47.03
53659;BME280;41524;35.624;139.698;2023-08-31T01:40:14;101506.00;;;29.76;47.40
53659;BME280;41524;35.624;139.698;2023-08-31T01:45:14;101506.00;;;30.99;45.21
53659;BME280;41524;35.624;139.698;2023-08-31T01:50:26;101497.00;;;30.59;45.58
53659;BME280;41524;35.624;139.698;2023-08-31T01:55:12;101494.00;;;30.56;45.45
53659;BME280;41524;35.624;139.698;2023-08-31T02:00:13;101498.00;;;29.42;44.81
53659;BME280;41524;35.624;139.698;2023-08-31T02:05:12;101497.00;;;30.94;43.93
53659;BME280;41524;35.624;139.698;2023-08-31T02:10:11;101498.00;;;30.81;44.79
53659;BME280;41524;35.624;139.698;2023-08-31T02:15:11;101492.00;;;31.15;44.29
53659;BME280;41524;35.624;139.698;2023-08-31T02:20:11;101491.00;;;31.03;44.51
53659;BME280;41524;35.624;139.698;2023-08-31T02:25:11;101500.00;;;30.39;44.50
53659;BME280;41524;35.624;139.698;2023-08-31T02:30:12;101487.00;;;29.52;45.03
53659;BME280;41524;35.624;139.698;2023-08-31T02:35:11;101487.00;;;30.86;44.30
53659;BME280;41524;35.624;139.698;2023-08-31T02:40:12;101487.00;;;31.01;45.04
53659;BME280;41524;35.624;139.698;2023-08-31T02:45:12;101481.00;;;30.56;46.19
53659;BME280;41524;35.624;139.698;2023-08-31T02:50:12;101477.00;;;30.78;45.59
53659;BME280;41524;35.624;139.698;2023-08-31T02:55:11;101467.00;;;31.35;44.22
53659;BME280;41524;35.624;139.698;2023-08-31T03:00:12;101478.00;;;30.58;44.57
53659;BME280;41524;35.624;139.698;2023-08-31T03:05:11;101468.00;;;32.13;42.41
53659;BME280;41524;35.624;139.698;2023-08-31T03:10:11;101463.00;;;31.74;42.28
53659;BME280;41524;35.624;139.698;2023-08-31T03:15:12;101461.00;;;31.53;43.72
53659;BME280;41524;35.624;139.698;2023-08-31T03:20:11;101453.00;;;31.30;43.76
53659;BME280;41524;35.624;139.698;2023-08-31T03:25:12;101454.00;;;31.43;43.51
53659;BME280;41524;35.624;139.698;2023-08-31T03:30:12;101453.00;;;31.58;44.52
53659;BME280;41524;35.624;139.698;2023-08-31T03:35:11;101444.00;;;31.38;45.36
53659;BME280;41524;35.624;139.698;2023-08-31T03:40:20;101452.00;;;30.68;45.59
53659;BME280;41524;35.624;139.698;2023-08-31T03:45:11;101444.00;;;30.36;46.76
53659;BME280;41524;35.624;139.698;2023-08-31T03:50:11;101439.00;;;30.59;46.96
53659;BME280;41524;35.624;139.698;2023-08-31T03:55:11;101439.00;;;30.80;46.31
53659;BME280;41524;35.624;139.698;2023-08-31T04:00:11;101437.00;;;29.71;48.42
53659;BME280;41524;35.624;139.698;2023-08-31T04:05:11;101442.00;;;30.11;47.99
53659;BME280;41524;35.624;139.698;2023-08-31T04:10:11;101440.00;;;30.57;46.18
53659;BME280;41524;35.624;139.698;2023-08-31T04:15:11;101436.00;;;31.03;45.63
53659;BME280;41524;35.624;139.698;2023-08-31T04:20:12;101423.00;;;29.77;47.82
53659;BME280;41524;35.624;139.698;2023-08-31T04:25:11;101421.00;;;29.86;48.28
53659;BME280;41524;35.624;139.698;2023-08-31T04:30:12;101415.00;;;29.82;49.28
53659;BME280;41524;35.624;139.698;2023-08-31T04:35:11;101408.00;;;29.11;50.21
53659;BME280;41524;35.624;139.698;2023-08-31T04:40:11;101397.00;;;30.12;48.64
53659;BME280;41524;35.624;139.698;2023-08-31T04:45:11;101397.00;;;28.82;50.10
53659;BME280;41524;35.624;139.698;2023-08-31T04:50:12;101385.00;;;29.98;49.83
53659;BME280;41524;35.624;139.698;2023-08-31T04:55:12;101388.00;;;30.42;49.10
53659;BME280;41524;35.624;139.698;2023-08-31T05:00:11;101388.00;;;29.63;49.61
53659;BME280;41524;35.624;139.698;2023-08-31T05:05:15;101377.00;;;29.83;49.28
53659;BME280;41524;35.624;139.698;2023-08-31T05:10:11;101366.00;;;29.69;50.20
53659;BME280;41524;35.624;139.698;2023-08-31T05:15:11;101363.00;;;29.75;49.35
53659;BME280;41524;35.624;139.698;2023-08-31T05:20:11;101360.00;;;30.40;48.27
53659;BME280;41524;35.624;139.698;2023-08-31T05:25:11;101360.00;;;30.29;48.55
53659;BME280;41524;35.624;139.698;2023-08-31T05:30:11;101359.00;;;30.31;48.72
53659;BME280;41524;35.624;139.698;2023-08-31T05:35:11;101356.00;;;29.81;50.63
53659;BME280;41524;35.624;139.698;2023-08-31T05:40:12;101351.00;;;30.32;50.15
53659;BME280;41524;35.624;139.698;2023-08-31T05:45:11;101348.00;;;29.45;51.71
53659;BME280;41524;35.624;139.698;2023-08-31T05:50:10;101351.00;;;29.99;51.37
53659;BME280;41524;35.624;139.698;2023-08-31T05:55:11;101354.00;;;30.38;50.63
53659;BME280;41524;35.624;139.698;2023-08-31T06:00:11;101356.00;;;29.64;51.77
53659;BME280;41524;35.624;139.698;2023-08-31T06:05:11;101356.00;;;29.27;53.82
53659;BME280;41524;35.624;139.698;2023-08-31T06:10:11;101353.00;;;29.55;53.50
53659;BME280;41524;35.624;139.698;2023-08-31T06:15:11;101347.00;;;28.86;54.44
53659;BME280;41524;35.624;139.698;2023-08-31T06:20:11;101354.00;;;29.51;53.54
53659;BME280;41524;35.624;139.698;2023-08-31T06:25:11;101354.00;;;29.51;53.18
53659;BME280;41524;35.624;139.698;2023-08-31T06:30:12;101364.00;;;29.47;52.97
53659;BME280;41524;35.624;139.698;2023-08-31T06:35:11;101365.00;;;28.53;55.38
53659;BME280;41524;35.624;139.698;2023-08-31T06:40:11;101360.00;;;28.19;55.70
53659;BME280;41524;35.624;139.698;2023-08-31T06:45:12;101365.00;;;29.24;54.39
53659;BME280;41524;35.624;139.698;2023-08-31T06:50:11;101367.00;;;28.81;54.53
53659;BME280;41524;35.624;139.698;2023-08-31T06:55:11;101367.00;;;28.61;55.27
53659;BME280;41524;35.624;139.698;2023-08-31T07:00:12;101365.00;;;28.98;55.05
53659;BME280;41524;35.624;139.698;2023-08-31T07:05:12;101373.00;;;27.85;56.76
53659;BME280;41524;35.624;139.698;2023-08-31T07:10:11;101374.00;;;27.60;57.49
53659;BME280;41524;35.624;139.698;2023-08-31T07:15:12;101356.00;;;29.31;54.23
53659;BME280;41524;35.624;139.698;2023-08-31T07:20:12;101367.00;;;28.23;55.80
53659;BME280;41524;35.624;139.698;2023-08-31T07:25:10;101370.00;;;28.08;56.67
53659;BME280;41524;35.624;139.698;2023-08-31T07:30:11;101374.00;;;28.10;55.69
53659;BME280;41524;35.624;139.698;2023-08-31T07:35:11;101374.00;;;28.88;51.84
53659;BME280;41524;35.624;139.698;2023-08-31T07:40:12;101371.00;;;28.88;51.55
53659;BME280;41524;35.624;139.698;2023-08-31T07:45:12;101378.00;;;28.98;51.39
53659;BME280;41524;35.624;139.698;2023-08-31T07:50:11;101385.00;;;27.70;54.04
53659;BME280;41524;35.624;139.698;2023-08-31T07:55:11;101388.00;;;28.00;53.00
53659;BME280;41524;35.624;139.698;2023-08-31T08:00:11;101389.00;;;28.54;52.64
53659;BME280;41524;35.624;139.698;2023-08-31T08:05:11;101383.00;;;28.06;54.19
53659;BME280;41524;35.624;139.698;2023-08-31T08:10:11;101389.00;;;27.71;54.71
53659;BME280;41524;35.624;139.698;2023-08-31T08:15:12;101387.00;;;26.95;56.26
53659;BME280;41524;35.624;139.698;2023-08-31T08:20:11;101383.00;;;27.31;55.91
53659;BME280;41524;35.624;139.698;2023-08-31T08:25:11;101388.00;;;27.53;55.26
53659;BME280;41524;35.624;139.698;2023-08-31T08:30:11;101389.00;;;28.21;53.97
53659;BME280;41524;35.624;139.698;2023-08-31T08:35:11;101392.00;;;26.91;55.70
53659;BME280;41524;35.624;139.698;2023-08-31T08:40:12;101387.00;;;27.23;55.32
53659;BME280;41524;35.624;139.698;2023-08-31T08:45:16;101393.00;;;27.17;55.49
53659;BME280;41524;35.624;139.698;2023-08-31T08:50:12;101393.00;;;26.77;56.64
53659;BME280;41524;35.624;139.698;2023-08-31T08:55:11;101397.00;;;27.00;56.70
53659;BME280;41524;35.624;139.698;2023-08-31T09:00:12;101401.00;;;27.80;55.05
53659;BME280;41524;35.624;139.698;2023-08-31T09:05:11;101404.00;;;27.07;56.30
53659;BME280;41524;35.624;139.698;2023-08-31T09:10:12;101423.00;;;26.02;58.12
53659;BME280;41524;35.624;139.698;2023-08-31T09:15:12;101424.00;;;26.75;56.64
53659;BME280;41524;35.624;139.698;2023-08-31T09:20:11;101430.00;;;26.37;58.16
53659;BME280;41524;35.624;139.698;2023-08-31T09:25:11;101441.00;;;26.43;58.99
53659;BME280;41524;35.624;139.698;2023-08-31T09:30:12;101444.00;;;26.18;60.31
53659;BME280;41524;35.624;139.698;2023-08-31T09:35:10;101449.00;;;25.93;60.95
53659;BME280;41524;35.624;139.698;2023-08-31T09:40:16;101457.00;;;25.58;61.92
53659;BME280;41524;35.624;139.698;2023-08-31T09:45:11;101459.00;;;26.51;60.00
53659;BME280;41524;35.624;139.698;2023-08-31T09:50:11;101464.00;;;25.81;62.46
53659;BME280;41524;35.624;139.698;2023-08-31T09:55:11;101467.00;;;25.50;64.84
53659;BME280;41524;35.624;139.698;2023-08-31T10:00:12;101473.00;;;25.58;65.18
53659;BME280;41524;35.624;139.698;2023-08-31T10:05:11;101484.00;;;25.46;65.65
53659;BME280;41524;35.624;139.698;2023-08-31T10:10:10;101488.00;;;26.32;64.43
53659;BME280;41524;35.624;139.698;2023-08-31T10:15:12;101491.00;;;25.88;65.46
53659;BME280;41524;35.624;139.698;2023-08-31T10:20:15;101501.00;;;25.78;66.22
53659;BME280;41524;35.624;139.698;2023-08-31T10:25:11;101505.00;;;25.95;66.00
53659;BME280;41524;35.624;139.698;2023-08-31T10:30:24;101514.00;;;25.83;66.42
53659;BME280;41524;35.624;139.698;2023-08-31T10:35:10;101515.00;;;25.51;67.50
53659;BME280;41524;35.624;139.698;2023-08-31T10:40:11;101524.00;;;25.82;67.10
53659;BME280;41524;35.624;139.698;2023-08-31T10:45:11;101526.00;;;25.96;66.86
53659;BME280;41524;35.624;139.698;2023-08-31T10:50:20;101527.00;;;26.18;66.25
53659;BME280;41524;35.624;139.698;2023-08-31T10:55:11;101533.00;;;26.07;66.61
53659;BME280;41524;35.624;139.698;2023-08-31T11:00:12;101529.00;;;25.31;68.99
53659;BME280;41524;35.624;139.698;2023-08-31T11:05:13;101529.00;;;25.93;68.15
53659;BME280;41524;35.624;139.698;2023-08-31T11:10:13;101530.00;;;25.88;67.16
53659;BME280;41524;35.624;139.698;2023-08-31T11:15:13;101537.00;;;26.02;66.77
53659;BME280;41524;35.624;139.698;2023-08-31T11:20:15;101537.00;;;25.71;68.24
53659;BME280;41524;35.624;139.698;2023-08-31T11:25:13;101537.00;;;25.73;68.30
53659;BME280;41524;35.624;139.698;2023-08-31T11:30:15;101535.00;;;25.74;68.53
53659;BME280;41524;35.624;139.698;2023-08-31T11:35:11;101536.00;;;26.12;67.06
53659;BME280;41524;35.624;139.698;2023-08-31T11:40:11;101537.00;;;25.95;67.73
53659;BME280;41524;35.624;139.698;2023-08-31T11:45:11;101541.00;;;25.68;68.03
53659;BME280;41524;35.624;139.698;2023-08-31T11:50:11;101542.00;;;25.27;69.36
53659;BME280;41524;35.624;139.698;2023-08-31T11:55:13;101544.00;;;25.80;68.40
53659;BME280;41524;35.624;139.698;2023-08-31T12:00:12;101545.00;;;25.37;69.45
53659;BME280;41524;35.624;139.698;2023-08-31T12:05:20;101543.00;;;26.07;67.82
53659;BME280;41524;35.624;139.698;2023-08-31T12:10:14;101539.00;;;26.10;67.59
53659;BME280;41524;35.624;139.698;2023-08-31T12:15:12;101543.00;;;25.19;69.88
53659;BME280;41524;35.624;139.698;2023-08-31T12:20:11;101537.00;;;25.74;68.43
53659;BME280;41524;35.624;139.698;2023-08-31T12:25:19;101539.00;;;25.64;69.18
53659;BME280;41524;35.624;139.698;2023-08-31T12:30:12;101542.00;;;25.34;70.09
53659;BME280;41524;35.624;139.698;2023-08-31T12:35:11;101550.00;;;25.35;68.89
53659;BME280;41524;35.624;139.698;2023-08-31T12:40:11;101551.00;;;25.90;67.08
53659;BME280;41524;35.624;139.698;2023-08-31T12:45:11;101547.00;;;25.81;66.90
53659;BME280;41524;35.624;139.698;2023-08-31T12:50:11;101555.00;;;25.57;66.47
53659;BME280;41524;35.624;139.698;2023-08-31T12:55:12;101556.00;;;25.57;66.30
53659;BME280;41524;35.624;139.698;2023-08-31T13:00:16;101551.00;;;25.82;66.09
53659;BME280;41524;35.624;139.698;2023-08-31T13:05:12;101553.00;;;25.57;66.08
53659;BME280;41524;35.624;139.698;2023-08-31T13:10:12;101556.00;;;25.30;67.32
53659;BME280;41524;35.624;139.698;2023-08-31T13:15:11;101552.00;;;26.10;65.97
53659;BME280;41524;35.624;139.698;2023-08-31T13:20:12;101548.00;;;26.28;64.83
53659;BME280;41524;35.624;139.698;2023-08-31T13:25:11;101552.00;;;26.00;64.64
53659;BME280;41524;35.624;139.698;2023-08-31T13:30:12;101547.00;;;26.65;62.79
53659;BME280;41524;35.624;139.698;2023-08-31T13:35:12;101552.00;;;25.29;65.61
53659;BME280;41524;35.624;139.698;2023-08-31T13:40:11;101543.00;;;26.11;63.78
53659;BME280;41524;35.624;139.698;2023-08-31T13:45:17;101549.00;;;25.58;64.39
53659;BME280;41524;35.624;139.698;2023-08-31T13:50:37;101541.00;;;25.47;64.61
53659;BME280;41524;35.624;139.698;2023-08-31T13:55:11;101543.00;;;25.45;64.61
53659;BME280;41524;35.624;139.698;2023-08-31T14:00:12;101544.00;;;25.70;64.33
53659;BME280;41524;35.624;139.698;2023-08-31T14:05:11;101547.00;;;26.16;63.48
53659;BME280;41524;35.624;139.698;2023-08-31T14:10:13;101551.00;;;25.53;65.13
53659;BME280;41524;35.624;139.698;2023-08-31T14:15:12;101551.00;;;25.14;65.86
53659;BME280;41524;35.624;139.698;2023-08-31T14:20:21;101548.00;;;25.37;66.29
53659;BME280;41524;35.624;139.698;2023-08-31T14:25:11;101549.00;;;24.98;67.18
53659;BME280;41524;35.624;139.698;2023-08-31T14:30:11;101543.00;;;24.81;67.75
53659;BME280;41524;35.624;139.698;2023-08-31T14:35:13;101544.00;;;25.07;67.63
53659;BME280;41524;35.624;139.698;2023-08-31T14:40:11;101535.00;;;26.15;64.85
53659;BME280;41524;35.624;139.698;2023-08-31T14:45:11;101534.00;;;25.84;65.71
53659;BME280;41524;35.624;139.698;2023-08-31T14:50:11;101533.00;;;26.00;65.46
53659;BME280;41524;35.624;139.698;2023-08-31T14:55:11;101529.00;;;24.85;68.33
53659;BME280;41524;35.624;139.698;2023-08-31T15:00:17;101526.00;;;25.41;67.68
53659;BME280;41524;35.624;139.698;2023-08-31T15:05:11;101518.00;;;25.61;66.46
53659;BME280;41524;35.624;139.698;2023-08-31T15:10:11;101521.00;;;25.06;67.41
53659;BME280;41524;35.624;139.698;2023-08-31T15:15:11;101517.00;;;24.88;67.55
53659;BME280;41524;35.624;139.698;2023-08-31T15:20:11;101509.00;;;25.70;66.35
53659;BME280;41524;35.624;139.698;2023-08-31T15:25:10;101507.00;;;25.96;65.91
53659;BME280;41524;35.624;139.698;2023-08-31T15:30:11;101506.00;;;25.03;68.25
53659;BME280;41524;35.624;139.698;2023-08-31T15:35:11;101505.00;;;25.03;68.65
53659;BME280;41524;35.624;139.698;2023-08-31T15:40:11;101505.00;;;26.72;64.34
53659;BME280;41524;35.624;139.698;2023-08-31T15:45:11;101502.00;;;25.68;66.66
53659;BME280;41524;35.624;139.698;2023-08-31T15:50:11;101509.00;;;24.84;69.28
53659;BME280;41524;35.624;139.698;2023-08-31T15:55:11;101499.00;;;25.42;67.42
53659;BME280;41524;35.624;139.698;2023-08-31T16:00:11;101500.00;;;24.83;67.95
53659;BME280;41524;35.624;139.698;2023-08-31T16:05:11;101497.00;;;24.82;69.10
53659;BME280;41524;35.624;139.698;2023-08-31T16:10:11;101500.00;;;24.93;68.44
53659;BME280;41524;35.624;139.698;2023-08-31T16:15:11;101487.00;;;25.62;66.48
53659;BME280;41524;35.624;139.698;2023-08-31T16:20:11;101483.00;;;25.86;65.70
53659;BME280;41524;35.624;139.698;2023-08-31T16:25:10;101485.00;;;24.61;68.93
53659;BME280;41524;35.624;139.698;2023-08-31T16:30:12;101480.00;;;25.05;68.04
53659;BME280;41524;35.624;139.698;2023-08-31T16:35:14;101475.00;;;25.73;66.19
53659;BME280;41524;35.624;139.698;2023-08-31T16:40:12;101478.00;;;24.39;68.78
53659;BME280;41524;35.624;139.698;2023-08-31T16:45:10;101471.00;;;24.95;67.77
53659;BME280;41524;35.624;139.698;2023-08-31T16:50:12;101469.00;;;25.18;67.62
53659;BME280;41524;35.624;139.698;2023-08-31T16:55:11;101465.00;;;25.07;67.56
53659;BME280;41524;35.624;139.698;2023-08-31T17:00:12;101461.00;;;24.90;68.28
53659;BME280;41524;35.624;139.698;2023-08-31T17:05:11;101459.00;;;24.70;69.36
53659;BME280;41524;35.624;139.698;2023-08-31T17:10:11;101457.00;;;23.93;70.66
53659;BME280;41524;35.624;139.698;2023-08-31T17:15:11;101454.00;;;24.43;70.16
53659;BME280;41524;35.624;139.698;2023-08-31T17:20:11;101454.00;;;24.28;70.16
53659;BME280;41524;35.624;139.698;2023-08-31T17:25:10;101447.00;;;23.96;71.28
53659;BME280;41524;35.624;139.698;2023-08-31T17:30:11;101447.00;;;24.67;70.18
53659;BME280;41524;35.624;139.698;2023-08-31T17:35:10;101449.00;;;24.92;69.97
53659;BME280;41524;35.624;139.698;2023-08-31T17:40:12;101443.00;;;25.09;69.59
53659;BME280;41524;35.624;139.698;2023-08-31T17:45:11;101449.00;;;24.29;71.35
53659;BME280;41524;35.624;139.698;2023-08-31T17:50:11;101441.00;;;24.44;70.48
53659;BME280;41524;35.624;139.698;2023-08-31T17:55:11;101440.00;;;24.70;69.64
53659;BME280;41524;35.624;139.698;2023-08-31T18:00:12;101441.00;;;24.72;69.79
53659;BME280;41524;35.624;139.698;2023-08-31T18:05:12;101441.00;;;24.05;71.25
53659;BME280;41524;35.624;139.698;2023-08-31T18:10:11;101439.00;;;24.40;70.11
53659;BME280;41524;35.624;139.698;2023-08-31T18:15:11;101440.00;;;24.72;69.22
53659;BME280;41524;35.624;139.698;2023-08-31T18:20:11;101440.00;;;24.87;69.54
53659;BME280;41524;35.624;139.698;2023-08-31T18:25:11;101436.00;;;25.35;68.73
53659;BME280;41524;35.624;139.698;2023-08-31T18:30:11;101435.00;;;25.10;69.31
53659;BME280;41524;35.624;139.698;2023-08-31T18:35:11;101428.00;;;24.47;71.34
53659;BME280;41524;35.624;139.698;2023-08-31T18:40:11;101425.00;;;24.56;70.99
53659;BME280;41524;35.624;139.698;2023-08-31T18:45:11;101421.00;;;24.35;71.64
53659;BME280;41524;35.624;139.698;2023-08-31T18:50:13;101418.00;;;24.46;71.95
53659;BME280;41524;35.624;139.698;2023-08-31T18:55:10;101418.00;;;24.57;71.49
53659;BME280;41524;35.624;139.698;2023-08-31T19:00:12;101415.00;;;24.22;73.01
53659;BME280;41524;35.624;139.698;2023-08-31T19:05:11;101416.00;;;23.75;74.55
53659;BME280;41524;35.624;139.698;2023-08-31T19:10:12;101420.00;;;23.97;74.11
53659;BME280;41524;35.624;139.698;2023-08-31T19:15:19;101408.00;;;24.26;74.01
53659;BME280;41524;35.624;139.698;2023-08-31T19:20:12;101408.00;;;24.85;72.30
53659;BME280;41524;35.624;139.698;2023-08-31T19:25:12;101413.00;;;24.17;73.05
53659;BME280;41524;35.624;139.698;2023-08-31T19:30:11;101411.00;;;24.47;71.97
53659;BME280;41524;35.624;139.698;2023-08-31T19:35:10;101416.00;;;24.12;73.25
53659;BME280;41524;35.624;139.698;2023-08-31T19:40:11;101423.00;;;24.42;72.08
53659;BME280;41524;35.624;139.698;2023-08-31T19:45:11;101422.00;;;25.27;70.03
53659;BME280;41524;35.624;139.698;2023-08-31T19:50:11;101419.00;;;24.63;70.75
53659;BME280;41524;35.624;139.698;2023-08-31T19:55:12;101418.00;;;24.39;71.49
53659;BME280;41524;35.624;139.698;2023-08-31T20:00:11;101409.00;;;25.01;69.88
53659;BME280;41524;35.624;139.698;2023-08-31T20:05:11;101403.00;;;23.70;73.84
53659;BME280;41524;35.624;139.698;2023-08-31T20:10:12;101397.00;;;24.07;73.11
53659;BME280;41524;35.624;139.698;2023-08-31T20:15:11;101396.00;;;23.99;73.38
53659;BME280;41524;35.624;139.698;2023-08-31T20:20:12;101403.00;;;24.19;72.03
53659;BME280;41524;35.624;139.698;2023-08-31T20:25:11;101407.00;;;24.50;72.42
53659;BME280;41524;35.624;139.698;2023-08-31T20:30:21;101411.00;;;23.86;74.43
53659;BME280;41524;35.624;139.698;2023-08-31T20:35:11;101404.00;;;25.05;71.08
53659;BME280;41524;35.624;139.698;2023-08-31T20:40:10;101398.00;;;23.89;73.73
53659;BME280;41524;35.624;139.698;2023-08-31T20:45:11;101409.00;;;23.89;74.60
53659;BME280;41524;35.624;139.698;2023-08-31T20:50:11;101411.00;;;23.83;74.90
53659;BME280;41524;35.624;139.698;2023-08-31T20:55:12;101411.00;;;24.90;72.11
53659;BME280;41524;35.624;139.698;2023-08-31T21:00:11;101413.00;;;23.90;73.94
53659;BME280;41524;35.624;139.698;2023-08-31T21:05:11;101416.00;;;24.79;72.49
53659;BME280;41524;35.624;139.698;2023-08-31T21:10:11;101420.00;;;24.06;74.62
53659;BME280;41524;35.624;139.698;2023-08-31T21:15:11;101415.00;;;24.24;73.99
53659;BME280;41524;35.624;139.698;2023-08-31T21:20:11;101412.00;;;25.22;71.85
53659;BME280;41524;35.624;139.698;2023-08-31T21:25:15;101412.00;;;24.82;72.08
53659;BME280;41524;35.624;139.698;2023-08-31T21:30:12;101412.00;;;24.72;72.12
53659;BME280;41524;35.624;139.698;2023-08-31T21:35:11;101412.00;;;24.72;72.35
53659;BME280;41524;35.624;139.698;2023-08-31T21:40:11;101404.00;;;24.80;71.53
53659;BME280;41524;35.624;139.698;2023-08-31T21:45:11;101408.00;;;24.87;71.33
53659;BME280;41524;35.624;139.698;2023-08-31T21:50:11;101407.00;;;25.91;68.55
53659;BME280;41524;35.624;139.698;2023-08-31T21:55:11;101399.00;;;25.78;67.85
53659;BME280;41524;35.624;139.698;2023-08-31T22:00:17;101405.00;;;25.99;67.28
53659;BME280;41524;35.624;139.698;2023-08-31T22:05:12;101404.00;;;26.16;66.12
53659;BME280;41524;35.624;139.698;2023-08-31T22:10:12;101405.00;;;26.00;66.38
53659;BME280;41524;35.624;139.698;2023-08-31T22:15:15;101408.00;;;26.38;65.12
53659;BME280;41524;35.624;139.698;2023-08-31T22:20:12;101401.00;;;25.35;66.42
53659;BME280;41524;35.624;139.698;2023-08-31T22:25:12;101403.00;;;25.39;67.31
53659;BME280;41524;35.624;139.698;2023-08-31T22:30:11;101404.00;;;25.78;66.00
53659;BME280;41524;35.624;139.698;2023-08-31T22:35:12;101400.00;;;25.38;66.05
53659;BME280;41524;35.624;139.698;2023-08-31T22:40:11;101408.00;;;25.93;65.11
53659;BME280;41524;35.624;139.698;2023-08-31T22:45:12;101412.00;;;26.65;63.88
53659;BME280;41524;35.624;139.698;2023-08-31T22:50:11;101408.00;;;27.39;61.27
53659;BME280;41524;35.624;139.698;2023-08-31T22:55:10;101408.00;;;27.73;59.55
53659;BME280;41524;35.624;139.698;2023-08-31T23:00:11;101413.00;;;28.00;57.63
53659;BME280;41524;35.624;139.698;2023-08-31T23:05:11;101411.00;;;27.87;57.37
53659;BME280;41524;35.624;139.698;2023-08-31T23:10:12;101412.00;;;27.79;57.12
53659;BME280;41524;35.624;139.698;2023-08-31T23:15:11;101413.00;;;27.58;57.67
53659;BME280;41524;35.624;139.698;2023-08-31T23:20:11;101411.00;;;27.95;55.79
53659;BME280;41524;35.624;139.698;2023-08-31T23:25:10;101411.00;;;28.60;54.79
53659;BME280;41524;35.624;139.698;2023-08-31T23:30:12;101405.00;;;28.91;54.36
53659;BME280;41524;35.624;139.698;2023-08-31T23:35:11;101401.00;;;28.09;54.11
53659;BME280;41524;35.624;139.698;2023-08-31T23:40:12;101407.00;;;29.18;52.55
53659;BME280;41524;35.624;139.698;2023-08-31T23:45:10;101407.00;;;29.02;51.80
53659;BME280;41524;35.624;139.698;2023-08-31T23:50:12;101410.00;;;29.29;50.95
53659;BME280;41524;35.624;139.698;2023-08-31T23:55:12;101416.00;;;28.85;51.00
